Quincy, IL

11:34 PM CDT on September 20, 2014 (GMT -0500)
Quincy Regional-Baldwin | Change Station
CLOSE
Current Station
Airport
Location: Quincy,
Elevation: 768 ft
Nearby Weather Stations

Elev 768 ft 39.94 °N, 91.19 °W | Updated 40 minutes ago

Partly Cloudy
Partly Cloudy
72 °F
Feels Like 72 °F
N
8
Wind Variable Wind from WSW

Today
High -- | Low -- °F
--% Chance of Precip.
Yesterday
High -- | Low -- °F
Precip. -- in
6:51 AM 7:05 PM
Waning Crescent, 9% visible
Pressure 29.88 in
Visibility 6.0 miles
Clouds Clear
Dew Point 69 °F
Humidity 91%
Rainfall 0.11 in
Snow Depth Not available.
UV 0 out of 12
Pollen 6.50 out of 12
Air Quality Not available.
Flu Activity Not available.
METAR KUIN 210354Z AUTO 24007KT 6SM BR CLR 22/21 A2990 RMK AO2 SLP118 T02220206

More Conditions Fewer Conditions

Pressure 29.88 in
Visibility 6.0 miles
Clouds Clear
Dew Point 69 °F
Humidity 91%
Rainfall 0.11 in
Snow Depth Not available.
UV 0 out of 12
Pollen 6.50 out of 12
Air Quality Not available.
Flu Activity Not available.
METAR KUIN 210354Z AUTO 24007KT 6SM BR CLR 22/21 A2990 RMK AO2 SLP118 T02220206

More Conditions Fewer Conditions

10-Day Weather Forecast

Almanac

Astronomy

Sep. 20, 2014 Rise Set
Actual Time 6:51 AM CDT 7:05 PM CDT
Civil Twilight 6:24 AM CDT 7:32 PM CDT
Nautical Twilight 5:52 AM CDT 8:04 PM CDT
Astronomical Twilight 5:19 AM CDT 8:36 PM CDT
Moon 3:30 AM CDT (9/20) 5:09 PM CDT (9/20)
Length of Visible Light 13h 08m
Length of Day
12h 14m
Tomorrow will be 2m 36s shorter.
Waning Crescent, 9% of the Moon is Illuminated
Sep 21
Waning Crescent
Sep 24
New
Oct 1
First Quarter
Oct 8
Full
Oct 15
Last Quarter

Yesterday's Extremes

State Highs State Lows

Community

WunderPhotos

Upload Photos

1,755,081 photos uploaded!

Nearby

Snow Depth

Station Depth Elevation
No new snow has been reported.

Earthquake Activity

City Distance Mag. Time & Date
No recent earthquake activity has been reported nearby.
Minimum magnitude displayed is 2.5.

Coastal Water Temperatures

Place Temperature
No Stations Reporting

Nearby Weather Stations